createdAt,value
2019-05-26T00:00:20.280Z,100987.99
2019-05-26T00:02:47.034Z,100991.81
2019-05-26T00:05:13.953Z,100989.89
2019-05-26T00:07:40.736Z,100981.13
2019-05-26T00:10:07.814Z,100986.33
2019-05-26T00:12:34.767Z,100978.88
2019-05-26T00:15:01.790Z,100973.30
2019-05-26T00:17:28.653Z,100969.40
2019-05-26T00:19:55.431Z,100968.64
2019-05-26T00:22:22.308Z,100968.33
2019-05-26T00:24:49.220Z,100964.95
2019-05-26T00:27:16.388Z,100964.01
2019-05-26T00:29:43.529Z,100959.81
2019-05-26T00:32:10.847Z,100962.98
2019-05-26T00:34:37.715Z,100955.23
2019-05-26T00:37:04.592Z,100956.56
2019-05-26T00:39:31.365Z,100954.03
2019-05-26T00:41:58.225Z,100950.10
2019-05-26T00:44:25.093Z,100955.37
2019-05-26T00:46:51.965Z,100948.90
2019-05-26T00:49:18.616Z,100955.91
2019-05-26T00:51:45.528Z,100947.72
2019-05-26T00:54:12.443Z,100949.52
2019-05-26T00:56:39.196Z,100946.05
2019-05-26T00:59:06.024Z,100947.34
2019-05-26T01:01:32.780Z,100936.47
2019-05-26T01:03:59.544Z,100938.25
2019-05-26T01:06:26.359Z,100941.30
2019-05-26T01:08:53.266Z,100943.91
2019-05-26T01:11:20.021Z,100943.07
2019-05-26T01:13:47.205Z,100941.31
2019-05-26T01:16:13.988Z,100945.27
2019-05-26T01:18:41.133Z,100944.83
2019-05-26T01:21:07.992Z,100950.94
2019-05-26T01:23:34.797Z,100947.08
2019-05-26T01:26:01.618Z,100947.08
2019-05-26T01:28:28.713Z,100947.43
2019-05-26T01:30:55.472Z,100940.97
2019-05-26T01:33:23.120Z,100941.47
2019-05-26T01:35:50.495Z,100942.36
2019-05-26T01:38:23.906Z,100937.59
2019-05-26T01:40:46.747Z,100943.76
2019-05-26T01:43:14.050Z,100952.05
2019-05-26T01:45:40.947Z,100949.36
2019-05-26T01:48:07.962Z,100943.27
2019-05-26T01:50:34.977Z,100938.52
2019-05-26T01:53:02.146Z,100941.16
2019-05-26T01:55:29.071Z,100946.84
2019-05-26T01:57:55.831Z,100941.52
2019-05-26T02:00:22.669Z,100939.78
2019-05-26T02:02:49.857Z,100938.52
2019-05-26T02:05:16.635Z,100936.43
2019-05-26T02:07:43.811Z,100940.73
2019-05-26T02:10:11.031Z,100944.27
2019-05-26T02:12:37.807Z,100935.49
2019-05-26T02:15:04.902Z,100940.17
2019-05-26T02:17:31.763Z,100937.48
2019-05-26T02:19:58.906Z,100942.19
2019-05-26T02:22:25.671Z,100936.96
2019-05-26T02:24:52.749Z,100932.10
2019-05-26T02:27:19.717Z,100928.50
2019-05-26T02:29:46.644Z,100936.75
2019-05-26T02:32:13.512Z,100944.98
2019-05-26T02:34:40.345Z,100937.15
2019-05-26T02:37:07.131Z,100934.59
2019-05-26T02:39:34.063Z,100930.58
2019-05-26T02:42:00.831Z,100928.50
2019-05-26T02:44:27.592Z,100935.14
2019-05-26T02:46:54.400Z,100933.85
2019-05-26T02:49:21.165Z,100939.58
2019-05-26T02:51:48.039Z,100933.91
2019-05-26T02:54:15.251Z,100930.99
2019-05-26T02:56:42.018Z,100930.99
2019-05-26T02:59:09.104Z,100938.52
2019-05-26T03:01:36.818Z,100941.52
2019-05-26T03:04:03.649Z,100942.91
2019-05-26T03:06:30.524Z,100943.92
2019-05-26T03:08:57.794Z,100942.12
2019-05-26T03:11:26.408Z,100953.52
2019-05-26T03:13:53.682Z,100943.50
2019-05-26T03:16:20.632Z,100940.90
2019-05-26T03:18:50.539Z,100944.00
2019-05-26T03:21:18.258Z,100940.94
2019-05-26T03:23:47.338Z,100944.39
2019-05-26T03:26:16.074Z,100939.16
2019-05-26T03:28:42.843Z,100938.25
2019-05-26T03:31:09.986Z,100935.11
2019-05-26T03:33:36.958Z,100934.68
2019-05-26T03:36:03.879Z,100933.64
2019-05-26T03:38:30.918Z,100934.97
2019-05-26T03:40:57.734Z,100936.23
2019-05-26T03:43:24.509Z,100930.94
2019-05-26T03:46:17.529Z,100928.30
2019-05-26T03:48:44.382Z,100933.53
2019-05-26T03:51:12.059Z,100937.40
2019-05-26T03:53:38.841Z,100939.95
2019-05-26T03:56:05.593Z,100938.56
2019-05-26T03:58:32.513Z,100935.91
2019-05-26T04:00:59.435Z,100938.06
2019-05-26T04:03:26.401Z,100940.52
2019-05-26T04:05:53.177Z,100941.67
2019-05-26T04:08:20.029Z,100944.19
2019-05-26T04:10:47.047Z,100940.61
2019-05-26T04:13:13.818Z,100938.28
2019-05-26T04:15:40.711Z,100936.45
2019-05-26T04:18:07.534Z,100937.17
2019-05-26T04:20:34.409Z,100941.51
2019-05-26T04:23:01.362Z,100939.56
2019-05-26T04:25:28.161Z,100936.89
2019-05-26T04:27:55.085Z,100931.08
2019-05-26T04:30:22.026Z,100936.73
2019-05-26T04:32:48.884Z,100939.22
2019-05-26T04:35:15.730Z,100938.26
2019-05-26T04:37:42.531Z,100934.61
2019-05-26T04:40:26.005Z,100934.15
2019-05-26T04:42:38.147Z,100927.88
2019-05-26T04:45:05.086Z,100929.03
2019-05-26T04:47:31.941Z,100921.08
2019-05-26T04:49:58.964Z,100920.07
2019-05-26T04:52:25.805Z,100919.97
2019-05-26T04:54:54.540Z,100922.09
2019-05-26T04:57:21.451Z,100918.90
2019-05-26T04:59:48.255Z,100919.03
2019-05-26T05:02:15.782Z,100920.56
2019-05-26T05:04:42.701Z,100919.66
2019-05-26T05:07:09.505Z,100922.65
2019-05-26T05:09:36.298Z,100922.94
2019-05-26T05:12:03.169Z,100919.13
2019-05-26T05:14:30.366Z,100926.79
2019-05-26T05:16:58.047Z,100926.32
2019-05-26T05:19:26.384Z,100922.18
2019-05-26T05:21:54.463Z,100923.44
2019-05-26T05:24:24.685Z,100917.55
2019-05-26T05:26:51.801Z,100914.17
2019-05-26T05:29:23.068Z,100910.12
2019-05-26T05:31:56.328Z,100905.64
2019-05-26T05:34:23.210Z,100905.59
2019-05-26T05:36:50.095Z,100901.80
2019-05-26T05:39:17.839Z,100897.67
2019-05-26T05:41:44.649Z,100906.31
2019-05-26T05:44:11.508Z,100900.41
2019-05-26T05:46:38.416Z,100897.59
2019-05-26T05:49:05.256Z,100904.87
2019-05-26T05:51:32.198Z,100900.38
2019-05-26T05:53:59.057Z,100900.55
2019-05-26T05:56:25.878Z,100897.27
2019-05-26T05:58:52.655Z,100889.39
2019-05-26T06:01:19.419Z,100882.08
2019-05-26T06:03:46.255Z,100890.58
2019-05-26T06:06:13.017Z,100888.31
2019-05-26T06:08:39.893Z,100888.51
2019-05-26T06:11:16.078Z,100887.04
2019-05-26T06:13:35.541Z,100883.07
2019-05-26T06:16:02.802Z,100878.89
2019-05-26T06:18:29.674Z,100880.67
2019-05-26T06:20:56.534Z,100888.98
2019-05-26T06:23:23.391Z,100881.86
2019-05-26T06:25:50.239Z,100885.64
2019-05-26T06:28:17.107Z,100879.41
2019-05-26T06:30:43.977Z,100880.89
2019-05-26T06:33:10.897Z,100879.68
2019-05-26T06:35:37.765Z,100886.87
2019-05-26T06:38:04.650Z,100884.68
2019-05-26T06:40:32.459Z,100880.34
2019-05-26T06:42:59.476Z,100877.80
2019-05-26T06:45:26.562Z,100881.72
2019-05-26T06:47:53.490Z,100873.52
2019-05-26T06:50:20.351Z,100867.87
2019-05-26T06:52:47.291Z,100870.61
2019-05-26T06:55:14.765Z,100871.77
2019-05-26T06:57:41.563Z,100869.16
2019-05-26T07:00:08.508Z,100868.83
2019-05-26T07:02:35.383Z,100865.54
2019-05-26T07:05:02.400Z,100865.79
2019-05-26T07:07:29.720Z,100861.17
2019-05-26T07:09:56.492Z,100862.14
2019-05-26T07:12:23.379Z,100862.81
2019-05-26T07:14:50.615Z,100859.56
2019-05-26T07:17:20.465Z,100860.73
2019-05-26T07:19:46.406Z,100856.00
2019-05-26T07:22:13.704Z,100859.21
2019-05-26T07:24:40.481Z,100852.79
2019-05-26T07:27:07.393Z,100851.11
2019-05-26T07:29:34.646Z,100849.66
2019-05-26T07:32:01.429Z,100844.02
2019-05-26T07:34:28.638Z,100841.44
2019-05-26T07:36:55.530Z,100842.00
2019-05-26T07:39:22.414Z,100834.63
2019-05-26T07:42:08.185Z,100839.00
2019-05-26T07:44:18.767Z,100838.06
2019-05-26T07:46:45.654Z,100833.14
2019-05-26T07:49:12.467Z,100830.59
2019-05-26T07:51:39.221Z,100822.95
2019-05-26T07:54:06.160Z,100816.38
2019-05-26T07:56:33.535Z,100818.84
2019-05-26T07:59:00.361Z,100822.86
2019-05-26T08:01:35.660Z,100820.23
2019-05-26T08:03:55.896Z,100825.11
2019-05-26T08:06:23.100Z,100812.05
2019-05-26T08:08:49.968Z,100815.78
2019-05-26T08:11:17.152Z,100817.78
2019-05-26T08:13:43.908Z,100817.39
2019-05-26T08:16:10.670Z,100818.25
2019-05-26T08:18:37.508Z,100817.39
2019-05-26T08:21:04.366Z,100814.34
2019-05-26T08:23:31.129Z,100821.06
2019-05-26T08:25:58.229Z,100818.86
2019-05-26T08:28:25.628Z,100813.18
2019-05-26T08:30:52.460Z,100810.99
2019-05-26T08:33:20.131Z,100804.53
2019-05-26T08:35:47.002Z,100796.30
2019-05-26T08:38:13.845Z,100795.90
2019-05-26T08:40:40.774Z,100788.78
2019-05-26T08:43:07.744Z,100785.28
2019-05-26T08:45:34.538Z,100783.38
2019-05-26T08:48:01.234Z,100782.36
2019-05-26T08:50:28.171Z,100770.80
2019-05-26T08:52:54.926Z,100762.27
2019-05-26T08:55:21.920Z,100765.99
2019-05-26T08:57:48.827Z,100768.57
2019-05-26T09:00:16.408Z,100769.86
2019-05-26T09:02:43.333Z,100767.15
2019-05-26T09:05:10.286Z,100760.64
2019-05-26T09:07:37.142Z,100753.47
2019-05-26T09:10:04.201Z,100760.83
2019-05-26T09:12:31.058Z,100758.02
2019-05-26T09:14:57.922Z,100754.59
2019-05-26T09:17:25.262Z,100746.37
2019-05-26T09:19:52.241Z,100749.45
2019-05-26T09:22:19.017Z,100747.50
2019-05-26T09:24:45.947Z,100741.72
2019-05-26T09:27:13.141Z,100736.86
2019-05-26T09:29:39.954Z,100745.30
2019-05-26T09:32:06.728Z,100736.00
2019-05-26T09:34:33.847Z,100727.90
2019-05-26T09:37:00.764Z,100727.11
2019-05-26T09:39:27.528Z,100729.32
2019-05-26T09:41:54.354Z,100721.92
2019-05-26T09:44:21.314Z,100719.36
2019-05-26T09:46:48.211Z,100715.11
2019-05-26T09:49:15.122Z,100716.87
2019-05-26T09:51:41.978Z,100714.84
2019-05-26T09:54:12.398Z,100710.34
2019-05-26T09:56:38.083Z,100711.06
2019-05-26T09:59:05.276Z,100695.79
2019-05-26T10:01:32.094Z,100695.61
2019-05-26T10:03:59.109Z,100694.27
2019-05-26T10:06:26.134Z,100689.48
2019-05-26T10:08:53.182Z,100685.27
2019-05-26T10:11:20.189Z,100684.47
2019-05-26T10:13:46.977Z,100683.23
2019-05-26T10:16:13.841Z,100676.72
2019-05-26T10:18:40.655Z,100676.06
2019-05-26T10:21:07.627Z,100689.08
2019-05-26T10:23:34.386Z,100685.69
2019-05-26T10:26:01.293Z,100682.36
2019-05-26T10:28:28.347Z,100684.06
2019-05-26T10:30:55.635Z,100684.09
2019-05-26T10:33:22.383Z,100686.28
2019-05-26T10:35:49.139Z,100674.17
2019-05-26T10:38:15.951Z,100677.95
2019-05-26T10:40:43.117Z,100685.20
2019-05-26T10:43:10.105Z,100669.12
2019-05-26T10:45:37.488Z,100670.88
2019-05-26T10:48:04.346Z,100663.61
2019-05-26T10:50:31.272Z,100665.95
2019-05-26T10:52:58.539Z,100655.95
2019-05-26T10:55:25.805Z,100650.45
2019-05-26T10:57:52.658Z,100652.97
2019-05-26T11:00:19.823Z,100642.48
2019-05-26T11:02:46.723Z,100651.34
2019-05-26T11:05:13.634Z,100648.81
2019-05-26T11:07:40.404Z,100646.28
2019-05-26T11:10:08.901Z,100628.61
2019-05-26T11:12:35.833Z,100638.49
2019-05-26T11:15:02.822Z,100629.68
2019-05-26T11:17:29.691Z,100634.42
2019-05-26T11:19:56.512Z,100626.84
2019-05-26T11:22:23.451Z,100633.98
2019-05-26T11:24:50.275Z,100620.42
2019-05-26T11:27:17.257Z,100621.05
2019-05-26T11:29:44.141Z,100622.72
2019-05-26T11:32:11.416Z,100612.41
2019-05-26T11:34:38.515Z,100612.52
2019-05-26T11:37:05.820Z,100595.41
2019-05-26T11:39:32.752Z,100606.70
2019-05-26T11:42:12.362Z,100610.23
2019-05-26T11:44:28.518Z,100607.03
2019-05-26T11:46:55.248Z,100610.54
2019-05-26T11:49:22.356Z,100609.68
2019-05-26T11:51:49.616Z,100596.84
2019-05-26T11:54:16.469Z,100590.09
2019-05-26T11:56:43.262Z,100590.55
2019-05-26T11:59:10.220Z,100575.56
2019-05-26T12:01:37.530Z,100579.64
2019-05-26T12:04:04.528Z,100579.77
2019-05-26T12:06:31.662Z,100574.86
2019-05-26T12:08:58.939Z,100569.77
2019-05-26T12:11:25.867Z,100555.72
2019-05-26T12:13:52.717Z,100566.59
2019-05-26T12:16:20.213Z,100553.72
2019-05-26T12:18:47.190Z,100556.81
2019-05-26T12:21:14.047Z,100557.23
2019-05-26T12:23:41.408Z,100542.43
2019-05-26T12:26:08.319Z,100549.20
2019-05-26T12:28:35.533Z,100558.77
2019-05-26T12:31:02.462Z,100541.13
2019-05-26T12:33:29.374Z,100551.67
2019-05-26T12:35:56.241Z,100540.20
2019-05-26T12:38:23.207Z,100537.70
2019-05-26T12:40:50.176Z,100539.54
2019-05-26T12:43:17.439Z,100542.47
2019-05-26T12:45:44.791Z,100543.62
2019-05-26T12:48:11.747Z,100543.10
2019-05-26T12:50:38.816Z,100544.88
2019-05-26T12:53:06.034Z,100539.28
2019-05-26T12:55:32.954Z,100545.16
2019-05-26T12:58:00.147Z,100541.63
2019-05-26T13:00:27.115Z,100541.59
2019-05-26T13:02:55.142Z,100540.66
2019-05-26T13:05:22.326Z,100540.78
2019-05-26T13:07:49.297Z,100536.70
2019-05-26T13:10:16.304Z,100528.91
2019-05-26T13:12:43.235Z,100543.92
2019-05-26T13:15:10.561Z,100531.13
2019-05-26T13:17:37.598Z,100532.89
2019-05-26T13:20:05.418Z,100528.62
2019-05-26T13:22:32.650Z,100530.05
2019-05-26T13:24:59.636Z,100523.20
2019-05-26T13:27:26.730Z,100527.27
2019-05-26T13:29:53.752Z,100525.55
2019-05-26T13:32:20.660Z,100529.34
2019-05-26T13:34:47.633Z,100520.70
2019-05-26T13:37:14.902Z,100516.45
2019-05-26T13:39:43.808Z,100523.64
2019-05-26T13:42:10.991Z,100515.82
2019-05-26T13:44:38.143Z,100520.73
2019-05-26T13:47:04.938Z,100515.45
2019-05-26T13:49:32.383Z,100510.12
2019-05-26T13:51:59.367Z,100513.34
2019-05-26T13:54:26.267Z,100509.41
2019-05-26T13:56:53.631Z,100512.41
2019-05-26T13:59:20.540Z,100507.13
2019-05-26T14:01:47.524Z,100512.16
2019-05-26T14:04:14.485Z,100518.86
2019-05-26T14:06:41.360Z,100515.77
2019-05-26T14:09:10.911Z,100509.17
2019-05-26T14:11:37.838Z,100502.91
2019-05-26T14:14:04.757Z,100502.02
2019-05-26T14:16:32.012Z,100507.16
2019-05-26T14:18:59.458Z,100509.20
2019-05-26T14:21:26.388Z,100517.63
2019-05-26T14:23:53.699Z,100499.84
2019-05-26T14:26:20.798Z,100491.03
2019-05-26T14:28:47.800Z,100492.17
2019-05-26T14:31:15.118Z,100489.88
2019-05-26T14:33:42.136Z,100496.59
2019-05-26T14:36:08.936Z,100489.13
2019-05-26T14:38:43.284Z,100494.03
2019-05-26T14:41:04.668Z,100490.67
2019-05-26T14:43:31.814Z,100487.25
2019-05-26T14:45:58.802Z,100488.27
2019-05-26T14:48:26.076Z,100486.75
2019-05-26T14:50:53.159Z,100485.22
2019-05-26T14:53:20.214Z,100484.75
2019-05-26T14:55:47.106Z,100480.86
2019-05-26T14:58:16.039Z,100480.13
2019-05-26T15:00:43.114Z,100479.42
2019-05-26T15:03:10.405Z,100480.46
2019-05-26T15:05:37.268Z,100468.42
2019-05-26T15:08:04.124Z,100471.08
2019-05-26T15:10:31.032Z,100471.14
2019-05-26T15:12:57.911Z,100465.79
2019-05-26T15:15:24.864Z,100468.91
2019-05-26T15:17:51.766Z,100471.96
2019-05-26T15:20:19.063Z,100469.17
2019-05-26T15:22:45.927Z,100473.67
2019-05-26T15:25:13.130Z,100463.43
2019-05-26T15:27:40.091Z,100467.95
2019-05-26T15:30:09.404Z,100467.81
2019-05-26T15:32:36.286Z,100469.42
2019-05-26T15:35:04.203Z,100468.40
2019-05-26T15:37:30.967Z,100469.50
2019-05-26T15:39:57.978Z,100468.15
2019-05-26T15:42:24.909Z,100467.91
2019-05-26T15:44:51.764Z,100458.72
2019-05-26T15:47:18.768Z,100466.03
2019-05-26T15:49:45.650Z,100464.55
2019-05-26T15:52:12.770Z,100460.59
2019-05-26T15:54:40.177Z,100466.77
2019-05-26T15:57:10.571Z,100458.51
2019-05-26T15:59:37.766Z,100462.72
2019-05-26T16:02:05.070Z,100456.22
2019-05-26T16:04:32.085Z,100455.81
2019-05-26T16:07:00.308Z,100450.20
2019-05-26T16:09:27.760Z,100456.97
2019-05-26T16:11:55.769Z,100454.22
2019-05-26T16:14:25.519Z,100450.31
2019-05-26T16:16:52.464Z,100449.09
2019-05-26T16:19:19.226Z,100445.83
2019-05-26T16:21:46.762Z,100448.95
2019-05-26T16:24:13.946Z,100447.86
2019-05-26T16:26:41.014Z,100439.31
2019-05-26T16:29:11.165Z,100442.23
2019-05-26T16:31:38.351Z,100435.05
2019-05-26T16:34:05.705Z,100432.48
2019-05-26T16:36:33.592Z,100429.30
2019-05-26T16:39:00.562Z,100424.28
2019-05-26T16:41:27.772Z,100422.45
2019-05-26T16:43:54.770Z,100425.27
2019-05-26T16:46:21.798Z,100417.41
2019-05-26T16:48:48.799Z,100425.89
2019-05-26T16:51:15.572Z,100426.46
2019-05-26T16:53:42.437Z,100426.51
2019-05-26T16:56:09.307Z,100422.34
2019-05-26T16:58:36.228Z,100419.70
2019-05-26T17:01:03.192Z,100410.54
2019-05-26T17:03:30.207Z,100415.31
2019-05-26T17:06:07.544Z,100414.88
2019-05-26T17:08:26.481Z,100410.84
2019-05-26T17:10:53.380Z,100405.93
2019-05-26T17:13:20.442Z,100402.84
2019-05-26T17:15:47.367Z,100403.30
2019-05-26T17:18:14.601Z,100392.36
2019-05-26T17:20:41.397Z,100392.25
2019-05-26T17:23:10.617Z,100399.92
2019-05-26T17:25:37.489Z,100394.42
2019-05-26T17:28:04.456Z,100388.55
2019-05-26T17:30:31.663Z,100379.03
2019-05-26T17:32:58.568Z,100385.59
2019-05-26T17:35:25.415Z,100378.85
2019-05-26T17:37:53.703Z,100381.75
2019-05-26T17:40:22.295Z,100378.62
2019-05-26T17:42:49.671Z,100376.64
2019-05-26T17:45:17.124Z,100373.78
2019-05-26T17:47:43.990Z,100367.41
2019-05-26T17:50:11.344Z,100369.34
2019-05-26T17:52:38.639Z,100368.37
2019-05-26T17:55:05.881Z,100370.39
2019-05-26T17:57:37.088Z,100368.28
2019-05-26T18:00:04.810Z,100367.98
2019-05-26T18:02:31.802Z,100366.75
2019-05-26T18:04:58.746Z,100358.28
2019-05-26T18:07:25.527Z,100353.88
2019-05-26T18:09:52.347Z,100355.95
2019-05-26T18:12:19.226Z,100357.27
2019-05-26T18:14:45.895Z,100361.47
2019-05-26T18:17:12.810Z,100361.59
2019-05-26T18:19:41.285Z,100362.28
2019-05-26T18:22:08.173Z,100360.58
2019-05-26T18:24:35.644Z,100362.63
2019-05-26T18:27:02.789Z,100360.48
2019-05-26T18:29:29.908Z,100358.03
2019-05-26T18:31:56.813Z,100358.94
2019-05-26T18:34:23.904Z,100361.58
2019-05-26T18:36:51.035Z,100361.48
2019-05-26T18:39:18.176Z,100358.34
2019-05-26T18:41:45.367Z,100356.05
2019-05-26T18:44:12.336Z,100356.48
2019-05-26T18:46:39.208Z,100354.77
2019-05-26T18:49:06.701Z,100356.91
2019-05-26T18:51:33.756Z,100353.90
2019-05-26T18:54:00.649Z,100361.17
2019-05-26T18:56:27.540Z,100358.22
2019-05-26T18:58:54.393Z,100361.94
2019-05-26T19:01:21.846Z,100362.13
2019-05-26T19:03:48.765Z,100356.82
2019-05-26T19:06:16.585Z,100353.74
2019-05-26T19:08:43.572Z,100355.11
2019-05-26T19:11:10.538Z,100356.25
2019-05-26T19:13:37.400Z,100357.61
2019-05-26T19:16:04.328Z,100353.06
2019-05-26T19:18:31.281Z,100360.70
2019-05-26T19:20:58.140Z,100351.95
2019-05-26T19:23:24.929Z,100361.67
2019-05-26T19:25:51.725Z,100351.58
2019-05-26T19:28:18.863Z,100355.58
2019-05-26T19:30:45.902Z,100352.16
2019-05-26T19:33:13.168Z,100350.75
2019-05-26T19:35:39.997Z,100355.41
2019-05-26T19:38:07.012Z,100349.14
2019-05-26T19:40:33.808Z,100342.50
2019-05-26T19:43:00.580Z,100345.40
2019-05-26T19:45:27.567Z,100347.03
2019-05-26T19:47:54.680Z,100345.59
2019-05-26T19:50:21.836Z,100347.78
2019-05-26T19:52:49.978Z,100347.11
2019-05-26T19:55:17.214Z,100347.20
2019-05-26T19:57:44.038Z,100343.76
2019-05-26T20:00:12.072Z,100342.05
2019-05-26T20:02:39.050Z,100341.00
2019-05-26T20:05:07.261Z,100337.66
2019-05-26T20:07:34.246Z,100341.65
2019-05-26T20:10:01.201Z,100336.23
2019-05-26T20:12:29.085Z,100329.67
2019-05-26T20:14:55.953Z,100328.25
2019-05-26T20:17:23.279Z,100331.48
2019-05-26T20:19:58.154Z,100336.16
2019-05-26T20:22:25.012Z,100327.10
2019-05-26T20:24:51.819Z,100326.27
2019-05-26T20:27:18.636Z,100322.75
2019-05-26T20:29:45.410Z,100326.27
2019-05-26T20:32:12.387Z,100320.09
2019-05-26T20:34:39.635Z,100319.70
2019-05-26T20:37:06.530Z,100320.27
2019-05-26T20:39:33.384Z,100321.59
2019-05-26T20:42:00.225Z,100325.50
2019-05-26T20:44:27.489Z,100319.80
2019-05-26T20:46:54.398Z,100318.77
2019-05-26T20:49:21.182Z,100317.98
2019-05-26T20:51:48.095Z,100310.48
2019-05-26T20:54:14.846Z,100310.30
2019-05-26T20:56:41.655Z,100308.77
2019-05-26T20:59:08.535Z,100300.78
2019-05-26T21:01:35.478Z,100303.34
2019-05-26T21:04:02.762Z,100302.96
2019-05-26T21:06:29.990Z,100308.50
2019-05-26T21:08:56.898Z,100313.53
2019-05-26T21:11:24.041Z,100307.43
2019-05-26T21:13:51.232Z,100303.82
2019-05-26T21:16:18.308Z,100310.30
2019-05-26T21:18:45.071Z,100316.66
2019-05-26T21:21:11.831Z,100309.16
2019-05-26T21:23:42.191Z,100306.97
2019-05-26T21:26:09.351Z,100311.83
2019-05-26T21:28:36.929Z,100304.96
2019-05-26T21:31:03.823Z,100306.59
2019-05-26T21:33:30.725Z,100307.72
2019-05-26T21:35:57.634Z,100304.77
2019-05-26T21:38:24.478Z,100313.23
2019-05-26T21:40:51.261Z,100312.49
2019-05-26T21:43:18.182Z,100308.67
2019-05-26T21:45:45.007Z,100312.19
2019-05-26T21:48:11.892Z,100309.73
2019-05-26T21:50:38.774Z,100306.59
2019-05-26T21:53:05.684Z,100308.48
2019-05-26T21:55:32.546Z,100312.39
2019-05-26T21:57:59.315Z,100311.45
2019-05-26T22:00:30.510Z,100307.34
2019-05-26T22:02:57.575Z,100305.73
2019-05-26T22:05:24.388Z,100298.98
2019-05-26T22:07:52.362Z,100302.20
2019-05-26T22:10:19.234Z,100299.84
2019-05-26T22:12:46.187Z,100294.69
2019-05-26T22:15:14.018Z,100289.47
2019-05-26T22:17:40.907Z,100291.48
2019-05-26T22:20:09.511Z,100289.77
2019-05-26T22:22:36.406Z,100281.96
2019-05-26T22:25:03.857Z,100283.68
2019-05-26T22:27:30.672Z,100275.60
2019-05-26T22:29:57.550Z,100278.27
2019-05-26T22:32:24.331Z,100271.95
2019-05-26T22:34:51.195Z,100266.75
2019-05-26T22:37:17.961Z,100263.98
2019-05-26T22:39:44.726Z,100256.38
2019-05-26T22:42:12.126Z,100256.67
2019-05-26T22:44:38.892Z,100251.53
2019-05-26T22:47:05.698Z,100246.59
2019-05-26T22:49:32.747Z,100238.61
2019-05-26T22:51:59.622Z,100237.45
2019-05-26T22:54:26.733Z,100233.17
2019-05-26T22:56:53.579Z,100234.71
2019-05-26T22:59:20.409Z,100235.56
2019-05-26T23:01:47.284Z,100234.71
2019-05-26T23:04:14.354Z,100233.86
2019-05-26T23:06:41.165Z,100230.98
2019-05-26T23:09:08.040Z,100237.83
2019-05-26T23:11:34.977Z,100234.70
2019-05-26T23:14:01.926Z,100232.80
2019-05-26T23:16:29.019Z,100231.56
2019-05-26T23:18:55.874Z,100231.10
2019-05-26T23:21:22.745Z,100229.17
2019-05-26T23:23:49.773Z,100221.96
2019-05-26T23:26:16.740Z,100225.19
2019-05-26T23:28:43.515Z,100223.20
2019-05-26T23:31:10.403Z,100224.23
2019-05-26T23:33:40.506Z,100215.31
2019-05-26T23:36:07.262Z,100213.21
2019-05-26T23:38:34.095Z,100211.70
2019-05-26T23:41:00.931Z,100210.85
2019-05-26T23:43:27.810Z,100215.31
2019-05-26T23:45:54.635Z,100212.95
2019-05-26T23:48:21.513Z,100205.32
2019-05-26T23:50:48.266Z,100209.31
2019-05-26T23:53:15.459Z,100205.14
2019-05-26T23:55:42.754Z,100210.27
2019-05-26T23:58:09.592Z,100202.19
